Time;durP1;ratioP1;P1;durP2;ratioP2;P2;SDS_P1;SDS_P2;PMS_P1;PMS_P2;Temp;Humidity;BMP_temperature;BMP_pressure;BME280_temperature;BME280_humidity;BME280_pressure;Samples;Min_cycle;Max_cycle;Signal;HPM_P1;HPM_P2
2021/04/12 00:00:39;;;;;;;9.82;1.48;;;;;;;;;;5012734;28;20105;-47
2021/04/12 00:03:20;;;;;;;11.95;2.08;;;;;;;;;;5012245;28;20030;-54
2021/04/12 00:06:05;;;;;;;12.30;1.80;;;;;;;;;;5010750;28;20061;-51
2021/04/12 00:08:32;;;;;;;14.07;1.88;;;;;;;;;;5011464;28;20026;-52
2021/04/12 00:11:02;;;;;;;11.18;1.80;;;;;;;;;;5009929;28;20034;-54
2021/04/12 00:13:55;;;;;;;12.48;2.00;;;;;;;;;;5012675;28;20034;-53
2021/04/12 00:16:41;;;;;;;12.10;2.20;;;;;;;;;;5006975;28;20058;-54
2021/04/12 00:19:17;;;;;;;24.33;2.78;;;;;;;;;;5009620;28;20033;-56
2021/04/12 00:22:16;;;;;;;22.13;2.55;;;;;;;;;;5009316;28;20650;-50
2021/04/12 00:25:07;;;;;;;17.55;2.60;;;;;;;;;;4966461;28;20041;-53
2021/04/12 00:27:34;;;;;;;11.27;2.22;;;;;;;;;;5010757;28;20448;-54
2021/04/12 00:30:07;;;;;;;8.55;2.22;;;;;;;;;;5011176;28;20028;-49
2021/04/12 00:32:40;;;;;;;10.48;2.50;;;;;;;;;;5010876;28;20426;-55
2021/04/12 00:35:12;;;;;;;9.88;2.25;;;;;;;;;;5011123;28;20030;-56
2021/04/12 00:37:51;;;;;;;17.73;2.65;;;;;;;;;;5008743;28;20034;-46
2021/04/12 00:40:19;;;;;;;12.93;1.83;;;;;;;;;;5009787;28;20493;-54
2021/04/12 00:42:49;;;;;;;11.63;2.83;;;;;;;;;;5009018;28;20061;-59
2021/04/12 00:45:34;;;;;;;17.63;2.38;;;;;;;;;;5010717;28;20032;-52
2021/04/12 00:48:19;;;;;;;12.45;2.42;;;;;;;;;;5010942;28;20033;-57
2021/04/12 00:50:55;;;;;;;12.55;2.05;;;;;;;;;;5009289;28;20041;-54
2021/04/12 00:53:33;;;;;;;11.73;1.90;;;;;;;;;;5010904;28;20045;-54
2021/04/12 00:56:11;;;;;;;13.30;1.85;;;;;;;;;;5009478;28;20054;-54
2021/04/12 00:58:47;;;;;;;10.73;2.60;;;;;;;;;;5010760;28;20033;-60
2021/04/12 01:01:14;;;;;;;10.57;2.22;;;;;;;;;;5022435;28;20481;-56
2021/04/12 01:03:50;;;;;;;9.32;2.05;;;;;;;;;;5011217;28;20107;-52
2021/04/12 01:06:35;;;;;;;63.03;4.97;;;;;;;;;;5009529;28;20028;-53
2021/04/12 01:09:17;;;;;;;32.92;3.33;;;;;;;;;;5010895;28;20394;-53
2021/04/12 01:11:47;;;;;;;14.90;2.30;;;;;;;;;;5010984;28;20137;-52
2021/04/12 01:14:14;;;;;;;18.23;2.20;;;;;;;;;;5010857;28;20026;-53
2021/04/12 01:16:44;;;;;;;13.85;2.33;;;;;;;;;;5009725;28;20485;-52
2021/04/12 01:19:29;;;;;;;11.40;2.65;;;;;;;;;;5010890;28;20156;-57
2021/04/12 01:21:59;;;;;;;10.23;1.92;;;;;;;;;;5014386;28;20099;-58
2021/04/12 01:24:38;;;;;;;11.20;2.80;;;;;;;;;;5014599;28;20068;-59
2021/04/12 01:27:23;;;;;;;10.32;2.88;;;;;;;;;;5014610;28;20096;-57
2021/04/12 01:30:08;;;;;;;8.75;2.05;;;;;;;;;;5014609;28;20476;-57
2021/04/12 01:32:35;;;;;;;14.07;2.00;;;;;;;;;;5012513;28;20124;-58
2021/04/12 01:35:23;;;;;;;8.35;2.20;;;;;;;;;;5013551;28;20030;-57
2021/04/12 01:38:09;;;;;;;6.85;1.60;;;;;;;;;;5002903;28;20535;-54
2021/04/12 01:40:54;;;;;;;8.93;1.75;;;;;;;;;;5012231;28;20029;-56
2021/04/12 01:43:50;;;;;;;8.35;1.95;;;;;;;;;;5014873;28;20030;-54
2021/04/12 01:46:32;;;;;;;10.45;1.70;;;;;;;;;;5005824;28;20057;-59
2021/04/12 01:49:25;;;;;;;9.95;1.70;;;;;;;;;;4996017;28;20029;-58
2021/04/12 01:51:52;;;;;;;12.95;2.28;;;;;;;;;;4990908;28;20026;-55
2021/04/12 01:54:28;;;;;;;11.40;1.90;;;;;;;;;;5013660;28;20044;-54
2021/04/12 01:57:13;;;;;;;12.55;2.35;;;;;;;;;;5014410;28;20092;-51
2021/04/12 01:59:58;;;;;;;5.68;1.90;;;;;;;;;;5012126;28;20033;-50
2021/04/12 02:02:25;;;;;;;5.78;1.58;;;;;;;;;;4994960;28;20030;-56
2021/04/12 02:04:52;;;;;;;7.05;1.90;;;;;;;;;;4994339;28;20386;-52
2021/04/12 02:07:25;;;;;;;14.90;1.85;;;;;;;;;;4999945;28;20076;-57
2021/04/12 02:09:52;;;;;;;7.45;1.75;;;;;;;;;;5015458;28;20022;-56
2021/04/12 02:12:37;;;;;;;4.97;1.40;;;;;;;;;;5013397;28;20034;-52
2021/04/12 02:15:15;;;;;;;16.73;1.92;;;;;;;;;;5004117;28;20026;-54
2021/04/12 02:17:42;;;;;;;7.28;1.55;;;;;;;;;;5003718;28;20073;-56
2021/04/12 02:20:29;;;;;;;9.95;1.70;;;;;;;;;;5009178;28;20037;-57
2021/04/12 02:23:14;;;;;;;9.02;1.60;;;;;;;;;;5006441;28;20171;-54
2021/04/12 02:25:53;;;;;;;7.32;1.55;;;;;;;;;;5006201;28;20495;-55
2021/04/12 02:28:20;;;;;;;3.88;1.30;;;;;;;;;;5005048;28;20101;-52
2021/04/12 02:30:53;;;;;;;6.05;1.77;;;;;;;;;;5012043;28;20033;-57
2021/04/12 02:33:36;;;;;;;3.58;1.58;;;;;;;;;;5011413;28;20405;-57
2021/04/12 02:36:02;;;;;;;;;;;;;;;;;;5013414;28;20018;-50
2021/04/12 02:38:29;;;;;;;7.60;1.42;;;;;;;;;;5009700;28;19913;-57
2021/04/12 02:41:14;;;;;;;4.38;1.30;;;;;;;;;;5014192;28;20132;-58
2021/04/12 02:43:59;;;;;;;3.30;1.33;;;;;;;;;;5014755;28;20029;-56
2021/04/12 02:46:40;;;;;;;2.78;1.20;;;;;;;;;;5014845;28;20021;-58
2021/04/12 02:49:13;;;;;;;8.18;1.65;;;;;;;;;;5014583;28;20096;-58
2021/04/12 02:51:49;;;;;;;6.22;1.30;;;;;;;;;;5014710;28;20033;-58
2021/04/12 02:54:35;;;;;;;2.47;1.10;;;;;;;;;;5014267;28;20041;-59
2021/04/12 02:57:25;;;;;;;7.25;1.77;;;;;;;;;;5014573;28;20042;-58
2021/04/12 03:00:10;;;;;;;3.72;1.70;;;;;;;;;;5014563;28;20037;-59
2021/04/12 03:02:55;;;;;;;2.60;1.30;;;;;;;;;;5014323;28;20454;-58
2021/04/12 03:05:45;;;;;;;3.25;1.45;;;;;;;;;;5014361;28;20049;-58
2021/04/12 03:08:24;;;;;;;3.45;1.48;;;;;;;;;;5014146;28;20061;-58
2021/04/12 03:11:11;;;;;;;4.15;1.20;;;;;;;;;;5014276;28;20041;-58
2021/04/12 03:13:44;;;;;;;3.65;1.35;;;;;;;;;;4983810;28;20050;-57
2021/04/12 03:16:16;;;;;;;2.72;1.10;;;;;;;;;;5014127;28;20433;-57
2021/04/12 03:18:43;;;;;;;;;;;;;;;;;;5014762;28;20026;-58
2021/04/12 03:21:20;;;;;;;4.18;1.50;;;;;;;;;;5014205;28;20000;-59
2021/04/12 03:24:05;;;;;;;4.88;1.50;;;;;;;;;;5014037;28;20026;-59
2021/04/12 03:26:59;;;;;;;3.22;1.38;;;;;;;;;;5013926;28;20110;-58
2021/04/12 03:29:33;;;;;;;2.35;1.40;;;;;;;;;;5014208;28;20057;-58
2021/04/12 03:32:07;;;;;;;2.03;1.25;;;;;;;;;;5014001;28;20040;-56
2021/04/12 03:34:37;;;;;;;3.03;1.27;;;;;;;;;;5013689;28;20038;-58
2021/04/12 03:37:19;;;;;;;2.65;1.40;;;;;;;;;;5013973;28;20080;-59
2021/04/12 03:40:05;;;;;;;4.13;1.40;;;;;;;;;;5014012;28;20492;-59
2021/04/12 03:42:38;;;;;;;3.65;1.42;;;;;;;;;;5013592;28;20026;-58
2021/04/12 03:45:08;;;;;;;3.22;1.58;;;;;;;;;;5013745;28;20389;-58
2021/04/12 03:47:35;;;;;;;1.98;1.10;;;;;;;;;;5013647;28;20033;-58
2021/04/12 03:50:14;;;;;;;3.28;1.40;;;;;;;;;;5013523;28;20100;-58
2021/04/12 03:52:56;;;;;;;2.50;1.38;;;;;;;;;;5013787;28;20377;-58
2021/04/12 03:55:26;;;;;;;2.78;1.10;;;;;;;;;;5013250;28;20112;-58
2021/04/12 03:58:13;;;;;;;2.92;1.10;;;;;;;;;;5013649;28;20140;-58
2021/04/12 04:00:40;;;;;;;3.85;1.20;;;;;;;;;;5013652;28;20032;-57
2021/04/12 04:03:26;;;;;;;3.88;1.27;;;;;;;;;;5013311;28;20022;-58
2021/04/12 04:06:02;;;;;;;3.20;1.30;;;;;;;;;;5013242;28;20041;-59
2021/04/12 04:08:47;;;;;;;2.25;1.00;;;;;;;;;;5013255;28;20018;-60
2021/04/12 04:11:21;;;;;;;2.40;1.30;;;;;;;;;;5013305;28;20100;-60
2021/04/12 04:14:06;;;;;;;1.58;1.10;;;;;;;;;;5013138;28;20393;-60
2021/04/12 04:16:38;;;;;;;4.00;1.20;;;;;;;;;;5013132;28;20060;-60
2021/04/12 04:19:44;;;;;;;3.03;1.00;;;;;;;;;;5013437;28;20109;-60
2021/04/12 04:22:13;;;;;;;1.60;1.13;;;;;;;;;;4952605;29;20034;-59
2021/04/12 04:24:58;;;;;;;2.80;1.10;;;;;;;;;;4952555;29;20460;-60
2021/04/12 04:27:25;;;;;;;2.05;1.25;;;;;;;;;;4990742;28;20069;-60
2021/04/12 04:30:02;;;;;;;1.75;1.20;;;;;;;;;;5013005;28;20022;-61
2021/04/12 04:32:47;;;;;;;2.67;1.00;;;;;;;;;;5012924;28;20038;-60
2021/04/12 04:35:29;;;;;;;1.73;1.10;;;;;;;;;;5012818;28;20030;-57
2021/04/12 04:38:23;;;;;;;2.58;1.27;;;;;;;;;;5013023;28;20037;-57
2021/04/12 04:40:59;;;;;;;1.92;0.93;;;;;;;;;;5013198;28;20041;-57
2021/04/12 04:43:37;;;;;;;2.45;1.25;;;;;;;;;;5012633;28;20500;-58
2021/04/12 04:46:22;;;;;;;2.33;1.10;;;;;;;;;;5011609;28;20083;-58
2021/04/12 04:49:09;;;;;;;1.83;0.90;;;;;;;;;;5012768;28;20022;-58
2021/04/12 04:51:55;;;;;;;4.00;1.10;;;;;;;;;;5012887;28;20082;-58
2021/04/12 04:54:22;;;;;;;1.83;1.00;;;;;;;;;;5012537;28;20482;-58
2021/04/12 04:56:49;;;;;;;1.08;0.80;;;;;;;;;;5016857;28;20029;-58
2021/04/12 04:59:27;;;;;;;1.38;0.88;;;;;;;;;;5016818;28;20480;-57
2021/04/12 05:02:13;;;;;;;1.67;1.08;;;;;;;;;;5016718;28;20477;-58
2021/04/12 05:04:46;;;;;;;1.23;0.68;;;;;;;;;;5016567;28;20025;-57
2021/04/12 05:07:42;;;;;;;1.60;1.00;;;;;;;;;;5011191;28;20033;-62
2021/04/12 05:10:33;;;;;;;2.22;1.00;;;;;;;;;;4943941;28;20039;-58
2021/04/12 05:13:10;;;;;;;1.10;0.90;;;;;;;;;;4996533;28;20035;-58
2021/04/12 05:15:50;;;;;;;1.85;0.95;;;;;;;;;;4996912;28;20470;-59
2021/04/12 05:18:35;;;;;;;1.80;1.15;;;;;;;;;;4996843;28;20037;-58
2021/04/12 05:21:20;;;;;;;1.15;0.85;;;;;;;;;;4996839;28;20030;-58
2021/04/12 05:23:54;;;;;;;1.30;0.95;;;;;;;;;;4996703;28;20040;-58
2021/04/12 05:26:39;;;;;;;2.22;0.82;;;;;;;;;;4995410;28;20425;-56
2021/04/12 05:29:25;;;;;;;1.05;0.88;;;;;;;;;;4996615;28;20031;-58
2021/04/12 05:32:11;;;;;;;1.60;0.88;;;;;;;;;;4997170;28;20037;-58
2021/04/12 05:34:57;;;;;;;1.73;0.90;;;;;;;;;;4996519;28;20412;-59
2021/04/12 05:37:37;;;;;;;2.03;1.00;;;;;;;;;;4996621;28;20490;-57
2021/04/12 05:40:07;;;;;;;1.55;0.85;;;;;;;;;;4996541;28;20073;-57
2021/04/12 05:42:53;;;;;;;1.33;0.88;;;;;;;;;;4996482;28;20029;-58
2021/04/12 05:45:32;;;;;;;0.75;0.68;;;;;;;;;;4996499;28;20058;-58
2021/04/12 05:48:07;;;;;;;0.82;0.82;;;;;;;;;;4996502;28;20073;-57
2021/04/12 05:50:51;;;;;;;1.40;0.73;;;;;;;;;;4996289;28;20422;-58
2021/04/12 05:53:24;;;;;;;2.83;1.30;;;;;;;;;;4996017;28;20041;-58
2021/04/12 05:56:09;;;;;;;1.00;0.82;;;;;;;;;;4996018;28;20108;-56
2021/04/12 05:58:56;;;;;;;1.98;0.77;;;;;;;;;;4996093;28;20108;-58
2021/04/12 06:01:26;;;;;;;0.63;0.63;;;;;;;;;;4994648;28;20049;-59
2021/04/12 06:04:11;;;;;;;0.95;0.60;;;;;;;;;;4995907;28;20061;-58
2021/04/12 06:06:44;;;;;;;1.63;0.80;;;;;;;;;;4995634;28;20029;-58
2021/04/12 06:09:29;;;;;;;1.10;0.68;;;;;;;;;;4996065;28;20422;-58
2021/04/12 06:12:19;;;;;;;0.90;0.70;;;;;;;;;;4995812;28;20064;-58
2021/04/12 06:15:05;;;;;;;0.85;0.80;;;;;;;;;;4995742;28;20524;-60
2021/04/12 06:17:34;;;;;;;0.68;0.65;;;;;;;;;;4995885;28;20380;-58
2021/04/12 06:20:11;;;;;;;1.00;0.57;;;;;;;;;;4994654;28;20030;-58
2021/04/12 06:22:38;;;;;;;0.50;0.50;;;;;;;;;;4995833;28;20057;-60
2021/04/12 06:25:23;;;;;;;0.90;0.52;;;;;;;;;;4995585;28;20382;-58
2021/04/12 06:27:57;;;;;;;0.52;0.52;;;;;;;;;;4995493;28;20030;-60
2021/04/12 06:30:31;;;;;;;1.00;0.60;;;;;;;;;;4995581;28;20023;-61
2021/04/12 06:33:15;;;;;;;0.80;0.80;;;;;;;;;;4993523;28;20058;-61
2021/04/12 06:35:45;;;;;;;0.60;0.50;;;;;;;;;;4995483;28;20030;-60
2021/04/12 06:38:15;;;;;;;0.57;0.50;;;;;;;;;;4995312;28;20033;-60
2021/04/12 06:41:00;;;;;;;1.02;0.93;;;;;;;;;;4995275;28;20482;-60
2021/04/12 06:43:40;;;;;;;0.80;0.70;;;;;;;;;;4995047;28;20109;-60
2021/04/12 06:46:07;;;;;;;0.80;0.50;;;;;;;;;;4995589;28;20040;-60
2021/04/12 06:48:36;;;;;;;0.50;0.50;;;;;;;;;;4995406;28;20014;-60
2021/04/12 06:51:03;;;;;;;0.70;0.63;;;;;;;;;;4994025;28;20037;-59
2021/04/12 06:53:50;;;;;;;1.05;0.30;;;;;;;;;;4994924;28;20106;-60
2021/04/12 06:56:36;;;;;;;2.53;0.60;;;;;;;;;;4993727;28;20053;-60
2021/04/12 06:59:10;;;;;;;0.88;0.50;;;;;;;;;;4995037;28;20034;-60
2021/04/12 07:02:00;;;;;;;0.70;0.50;;;;;;;;;;4994955;28;20022;-60
2021/04/12 07:04:46;;;;;;;0.43;0.40;;;;;;;;;;4994770;28;20490;-57
2021/04/12 07:07:51;;;;;;;0.63;0.30;;;;;;;;;;4994909;28;20481;-58
2021/04/12 07:10:33;;;;;;;1.33;0.73;;;;;;;;;;4992667;28;20030;-57
2021/04/12 07:13:00;;;;;;;1.00;0.45;;;;;;;;;;4992622;28;20045;-57
2021/04/12 07:15:28;;;;;;;1.10;0.68;;;;;;;;;;4993631;28;20506;-56
2021/04/12 07:18:13;;;;;;;2.00;1.20;;;;;;;;;;4994113;28;20029;-57
2021/04/12 07:20:58;;;;;;;0.60;0.60;;;;;;;;;;4994759;28;20406;-58
2021/04/12 07:23:41;;;;;;;0.47;0.47;;;;;;;;;;4994585;28;20041;-58
2021/04/12 07:26:27;;;;;;;0.30;0.28;;;;;;;;;;4994584;28;20026;-58
2021/04/12 07:29:12;;;;;;;0.52;0.40;;;;;;;;;;4994552;28;20035;-58
2021/04/12 07:31:59;;;;;;;0.32;0.32;;;;;;;;;;4994527;28;20034;-58
2021/04/12 07:34:45;;;;;;;1.10;0.40;;;;;;;;;;4994324;28;20121;-58
2021/04/12 07:37:31;;;;;;;0.75;0.30;;;;;;;;;;4994473;28;20037;-58
2021/04/12 07:40:01;;;;;;;0.68;0.45;;;;;;;;;;4994414;28;20105;-57
2021/04/12 07:42:31;;;;;;;0.50;0.40;;;;;;;;;;4994392;28;20033;-58
2021/04/12 07:45:14;;;;;;;0.82;0.50;;;;;;;;;;4994068;28;20080;-58
2021/04/12 07:47:57;;;;;;;0.60;0.40;;;;;;;;;;4994120;28;20026;-58
2021/04/12 07:50:42;;;;;;;0.57;0.38;;;;;;;;;;4994020;28;20029;-57
2021/04/12 07:53:17;;;;;;;0.93;0.55;;;;;;;;;;4993776;28;20053;-58
2021/04/12 07:56:08;;;;;;;0.50;0.50;;;;;;;;;;4993719;28;20057;-58
2021/04/12 07:58:41;;;;;;;0.47;0.45;;;;;;;;;;4993979;28;20130;-58
2021/04/12 08:01:08;;;;;;;0.43;0.32;;;;;;;;;;4993825;28;20077;-57
2021/04/12 08:03:54;;;;;;;1.25;0.50;;;;;;;;;;4993821;28;20034;-58
2021/04/12 08:06:33;;;;;;;0.68;0.43;;;;;;;;;;4993889;28;20034;-58
2021/04/12 08:09:06;;;;;;;0.47;0.30;;;;;;;;;;4993679;28;20038;-58
2021/04/12 08:11:51;;;;;;;1.30;0.30;;;;;;;;;;4993631;28;20022;-58
2021/04/12 08:14:24;;;;;;;0.47;0.45;;;;;;;;;;4993578;28;20041;-58
2021/04/12 08:17:07;;;;;;;0.75;0.40;;;;;;;;;;4993566;28;20023;-58
2021/04/12 08:19:40;;;;;;;0.40;0.30;;;;;;;;;;4993447;28;20030;-58
2021/04/12 08:22:45;;;;;;;0.20;0.20;;;;;;;;;;4993588;28;20424;-58
2021/04/12 08:25:21;;;;;;;1.10;0.63;;;;;;;;;;4991371;28;20026;-58
2021/04/12 08:27:48;;;;;;;0.50;0.30;;;;;;;;;;4991374;28;20391;-58
2021/04/12 08:30:18;;;;;;;0.50;0.30;;;;;;;;;;4992440;28;20406;-59
2021/04/12 08:32:56;;;;;;;1.05;0.40;;;;;;;;;;4993431;28;20494;-58
2021/04/12 08:35:41;;;;;;;0.57;0.20;;;;;;;;;;4993298;28;20052;-59
2021/04/12 08:38:26;;;;;;;0.30;0.30;;;;;;;;;;4993263;28;20141;-57
2021/04/12 08:40:56;;;;;;;1.08;0.40;;;;;;;;;;4993199;28;20033;-59
2021/04/12 08:43:43;;;;;;;0.40;0.40;;;;;;;;;;4993262;28;20485;-57
2021/04/12 08:46:28;;;;;;;0.85;0.30;;;;;;;;;;4993273;28;20045;-60
2021/04/12 08:49:15;;;;;;;0.32;0.20;;;;;;;;;;4993149;28;20034;-58
2021/04/12 08:51:55;;;;;;;0.43;0.20;;;;;;;;;;4993141;28;20033;-58
2021/04/12 08:54:48;;;;;;;0.30;0.30;;;;;;;;;;4992824;28;20117;-60
2021/04/12 08:57:33;;;;;;;2.45;0.40;;;;;;;;;;4993162;28;20449;-59
2021/04/12 09:00:15;;;;;;;1.20;0.30;;;;;;;;;;4993121;28;20481;-59
2021/04/12 09:02:48;;;;;;;0.55;0.40;;;;;;;;;;4993085;28;20023;-60
2021/04/12 09:05:44;;;;;;;0.50;0.40;;;;;;;;;;4993519;28;20034;-60
2021/04/12 09:08:30;;;;;;;0.73;0.40;;;;;;;;;;4990939;28;20065;-59
2021/04/12 09:11:16;;;;;;;0.77;0.40;;;;;;;;;;4993109;28;20022;-60
2021/04/12 09:13:53;;;;;;;0.40;0.38;;;;;;;;;;4992912;28;20041;-60
2021/04/12 09:16:27;;;;;;;0.68;0.40;;;;;;;;;;4993011;28;20061;-59
2021/04/12 09:19:00;;;;;;;0.90;0.50;;;;;;;;;;4993047;28;20089;-57
2021/04/12 09:21:27;;;;;;;0.30;0.20;;;;;;;;;;4993153;28;20030;-58
2021/04/12 09:24:04;;;;;;;0.70;0.30;;;;;;;;;;4993128;28;20080;-58
2021/04/12 09:26:49;;;;;;;0.52;0.28;;;;;;;;;;4992859;28;20026;-58
2021/04/12 09:29:19;;;;;;;1.40;0.50;;;;;;;;;;4992754;28;20018;-58
2021/04/12 09:31:49;;;;;;;0.40;0.30;;;;;;;;;;4992938;28;20497;-57
2021/04/12 09:34:19;;;;;;;0.30;0.20;;;;;;;;;;4992739;28;20389;-58
2021/04/12 09:37:04;;;;;;;1.67;0.55;;;;;;;;;;4992807;28;20018;-58
2021/04/12 09:39:49;;;;;;;2.60;0.45;;;;;;;;;;4992773;28;20036;-58
2021/04/12 09:42:16;;;;;;;1.75;0.63;;;;;;;;;;4995883;28;20054;-58
2021/04/12 09:45:01;;;;;;;0.80;0.40;;;;;;;;;;4996273;28;20029;-57
2021/04/12 09:47:28;;;;;;;0.85;0.40;;;;;;;;;;4996477;28;20471;-58
2021/04/12 09:50:10;;;;;;;0.95;0.50;;;;;;;;;;4996512;28;20120;-55
2021/04/12 09:52:41;;;;;;;0.63;0.50;;;;;;;;;;4996306;28;20029;-57
2021/04/12 09:55:24;;;;;;;0.20;0.20;;;;;;;;;;4996001;28;20058;-58
2021/04/12 09:57:50;;;;;;;;;;;;;;;;;;4996544;28;20489;-58
2021/04/12 10:00:36;;;;;;;0.45;0.30;;;;;;;;;;4996116;28;19936;-58
2021/04/12 10:03:03;;;;;;;0.85;0.60;;;;;;;;;;4996297;28;20355;-58
2021/04/12 10:05:30;;;;;;;0.57;0.35;;;;;;;;;;4996213;28;20034;-58
2021/04/12 10:08:11;;;;;;;0.95;0.50;;;;;;;;;;4996098;28;20500;-58
2021/04/12 10:10:44;;;;;;;1.05;0.35;;;;;;;;;;4995987;28;20441;-57
2021/04/12 10:13:20;;;;;;;0.20;0.20;;;;;;;;;;4995699;28;20023;-59
2021/04/12 10:15:47;;;;;;;0.52;0.20;;;;;;;;;;4995962;28;20560;-58
2021/04/12 10:18:34;;;;;;;0.25;0.25;;;;;;;;;;4994528;28;20026;-58
2021/04/12 10:21:13;;;;;;;1.70;0.45;;;;;;;;;;4995723;28;20471;-58
2021/04/12 10:23:41;;;;;;;1.08;0.60;;;;;;;;;;4998651;28;20351;-52
2021/04/12 10:26:14;;;;;;;0.93;0.50;;;;;;;;;;5014293;28;20026;-58
2021/04/12 10:28:41;;;;;;;0.22;0.20;;;;;;;;;;5015242;28;20030;-57
2021/04/12 10:31:10;;;;;;;1.08;0.20;;;;;;;;;;5015213;28;20026;-58
2021/04/12 10:33:45;;;;;;;1.48;0.47;;;;;;;;;;5014960;28;20116;-58
2021/04/12 10:36:32;;;;;;;1.88;0.38;;;;;;;;;;5014985;28;20025;-58
2021/04/12 10:39:01;;;;;;;0.55;0.40;;;;;;;;;;5014896;28;20478;-58
2021/04/12 10:41:28;;;;;;;0.80;0.60;;;;;;;;;;5015016;28;20014;-58
2021/04/12 10:43:55;;;;;;;0.50;0.32;;;;;;;;;;5014815;28;20117;-58
2021/04/12 10:46:31;;;;;;;1.90;0.38;;;;;;;;;;5014762;28;20382;-59
2021/04/12 10:49:10;;;;;;;0.32;0.32;;;;;;;;;;5014734;28;20057;-58
2021/04/12 10:51:37;;;;;;;0.38;0.22;;;;;;;;;;5014616;28;20470;-57
2021/04/12 10:54:19;;;;;;;1.42;0.40;;;;;;;;;;5013689;28;20405;-57
2021/04/12 10:56:47;;;;;;;0.73;0.50;;;;;;;;;;5014736;28;20490;-58
2021/04/12 10:59:32;;;;;;;0.30;0.30;;;;;;;;;;5014559;28;20026;-59
2021/04/12 11:02:15;;;;;;;0.60;0.40;;;;;;;;;;5014536;28;20037;-58
2021/04/12 11:05:02;;;;;;;0.75;0.35;;;;;;;;;;5014365;28;20032;-59
2021/04/12 11:07:44;;;;;;;0.60;0.30;;;;;;;;;;5014442;28;20018;-57
2021/04/12 11:10:11;;;;;;;1.23;0.30;;;;;;;;;;5014268;28;20030;-55
2021/04/12 11:12:38;;;;;;;0.40;0.25;;;;;;;;;;5014422;28;20088;-56
2021/04/12 11:15:20;;;;;;;0.60;0.40;;;;;;;;;;5014259;28;20038;-59
2021/04/12 11:18:00;;;;;;;0.50;0.40;;;;;;;;;;5014297;28;20025;-58
2021/04/12 11:20:39;;;;;;;0.20;0.20;;;;;;;;;;5014210;28;20088;-58
2021/04/12 11:23:11;;;;;;;0.98;0.40;;;;;;;;;;5012919;28;20070;-58
2021/04/12 11:25:50;;;;;;;0.80;0.40;;;;;;;;;;5013870;28;20048;-58
2021/04/12 11:28:22;;;;;;;0.52;0.40;;;;;;;;;;5014185;28;20025;-56
2021/04/12 11:31:01;;;;;;;1.63;0.50;;;;;;;;;;5014039;28;20389;-58
2021/04/12 11:33:40;;;;;;;0.65;0.43;;;;;;;;;;5013754;28;20045;-59
2021/04/12 11:36:13;;;;;;;0.95;0.52;;;;;;;;;;5013920;28;20028;-59
2021/04/12 11:38:44;;;;;;;0.73;0.35;;;;;;;;;;5013878;28;20034;-59
2021/04/12 11:41:37;;;;;;;0.30;0.30;;;;;;;;;;5013919;28;20030;-58
2021/04/12 11:44:13;;;;;;;0.60;0.30;;;;;;;;;;5010879;28;20401;-60
2021/04/12 11:47:09;;;;;;;0.40;0.40;;;;;;;;;;5013736;28;20092;-58
2021/04/12 11:49:54;;;;;;;0.30;0.22;;;;;;;;;;5001198;28;20042;-60
2021/04/12 11:52:27;;;;;;;0.75;0.47;;;;;;;;;;5013610;28;20022;-60
2021/04/12 11:54:54;;;;;;;0.45;0.35;;;;;;;;;;5013309;28;20049;-60
2021/04/12 11:57:22;;;;;;;0.40;0.30;;;;;;;;;;5013617;28;20105;-57
2021/04/12 12:00:21;;;;;;;0.50;0.40;;;;;;;;;;5012932;28;20109;-54
2021/04/12 12:02:57;;;;;;;5.38;0.50;;;;;;;;;;4961376;28;20041;-62
2021/04/12 12:05:36;;;;;;;1.13;0.40;;;;;;;;;;5011105;28;20022;-63
2021/04/12 12:08:09;;;;;;;5.22;0.68;;;;;;;;;;5010500;28;20037;-62
2021/04/12 12:10:44;;;;;;;4.63;0.52;;;;;;;;;;5012552;28;20029;-62
2021/04/12 12:13:30;;;;;;;2.00;0.50;;;;;;;;;;5008696;28;20042;-62
2021/04/12 12:16:06;;;;;;;15.32;0.80;;;;;;;;;;5013129;28;20018;-62
2021/04/12 12:18:36;;;;;;;4.50;0.50;;;;;;;;;;5011784;28;20030;-61
2021/04/12 12:21:18;;;;;;;2.28;0.40;;;;;;;;;;5011231;28;20033;-62
2021/04/12 12:23:46;;;;;;;4.15;0.60;;;;;;;;;;5012563;28;20057;-63
2021/04/12 12:26:28;;;;;;;1.77;0.35;;;;;;;;;;5012702;28;20032;-62
2021/04/12 12:29:20;;;;;;;2.60;0.60;;;;;;;;;;5012015;28;20022;-63
2021/04/12 12:32:00;;;;;;;10.02;0.80;;;;;;;;;;4990808;28;20113;-62
2021/04/12 12:34:37;;;;;;;2.35;0.60;;;;;;;;;;5004324;28;20025;-62
2021/04/12 12:37:12;;;;;;;6.60;0.77;;;;;;;;;;5003095;28;20485;-62
2021/04/12 12:39:51;;;;;;;1.20;0.73;;;;;;;;;;5006209;28;20049;-62
2021/04/12 12:42:24;;;;;;;4.75;0.70;;;;;;;;;;5010843;28;20033;-63
2021/04/12 12:44:54;;;;;;;2.97;0.60;;;;;;;;;;5009330;28;20049;-58
2021/04/12 12:47:24;;;;;;;3.92;0.70;;;;;;;;;;5011187;28;20030;-59
2021/04/12 12:49:52;;;;;;;2.20;0.52;;;;;;;;;;5011500;28;20030;-59
2021/04/12 12:52:27;;;;;;;3.85;0.60;;;;;;;;;;5011744;28;20040;-60
2021/04/12 12:54:57;;;;;;;6.07;0.65;;;;;;;;;;5008916;28;20568;-60
2021/04/12 12:57:33;;;;;;;7.32;0.47;;;;;;;;;;5009991;28;20018;-58
2021/04/12 13:00:20;;;;;;;4.47;0.55;;;;;;;;;;5011118;28;20034;-61
2021/04/12 13:02:48;;;;;;;2.80;0.80;;;;;;;;;;5011389;28;20465;-49
2021/04/12 13:05:25;;;;;;;3.65;0.85;;;;;;;;;;5011188;28;20092;-55
2021/04/12 13:08:09;;;;;;;8.25;0.95;;;;;;;;;;5011924;28;20367;-56
2021/04/12 13:10:39;;;;;;;5.28;0.90;;;;;;;;;;5011096;28;20025;-48
2021/04/12 13:13:19;;;;;;;6.68;0.77;;;;;;;;;;5010823;28;20026;-60
2021/04/12 13:15:47;;;;;;;13.90;0.90;;;;;;;;;;5012239;28;20633;-53
2021/04/12 13:18:25;;;;;;;5.88;0.73;;;;;;;;;;5014108;28;20036;-48
2021/04/12 13:20:54;;;;;;;18.75;1.17;;;;;;;;;;5012388;28;20018;-61
2021/04/12 13:23:21;;;;;;;8.82;1.08;;;;;;;;;;5014435;28;20501;-50
2021/04/12 13:25:52;;;;;;;3.13;0.90;;;;;;;;;;5011734;28;20542;-51
2021/04/12 13:28:23;;;;;;;3.22;0.93;;;;;;;;;;5014910;28;20025;-52
2021/04/12 13:30:59;;;;;;;3.20;0.50;;;;;;;;;;5014371;28;20095;-49
2021/04/12 13:33:29;;;;;;;3.42;0.55;;;;;;;;;;5016143;28;20124;-51
2021/04/12 13:36:02;;;;;;;3.42;0.73;;;;;;;;;;5015571;28;20505;-55
2021/04/12 13:38:31;;;;;;;3.05;0.88;;;;;;;;;;5009586;28;20509;-55
2021/04/12 13:41:07;;;;;;;1.77;0.70;;;;;;;;;;5015595;28;20068;-65
2021/04/12 13:43:36;;;;;;;5.75;0.85;;;;;;;;;;5015002;28;20026;-51
2021/04/12 13:46:12;;;;;;;9.07;1.25;;;;;;;;;;5015319;28;20385;-50
2021/04/12 13:48:40;;;;;;;3.35;1.20;;;;;;;;;;5013878;28;20030;-54
2021/04/12 13:51:17;;;;;;;3.20;0.80;;;;;;;;;;5012643;28;20492;-61
2021/04/12 13:53:49;;;;;;;4.32;0.98;;;;;;;;;;5013167;28;20038;-51
2021/04/12 13:56:18;;;;;;;2.55;0.88;;;;;;;;;;5012722;28;20387;-50
2021/04/12 13:59:01;;;;;;;4.53;1.05;;;;;;;;;;5014572;28;20034;-53
2021/04/12 14:01:38;;;;;;;9.77;0.98;;;;;;;;;;5015193;28;20485;-49
2021/04/12 14:04:28;;;;;;;6.72;1.05;;;;;;;;;;5014795;28;20114;-48
2021/04/12 14:07:02;;;;;;;4.90;0.80;;;;;;;;;;5014727;28;20084;-60
2021/04/12 14:09:42;;;;;;;4.65;1.00;;;;;;;;;;5002415;28;20068;-59
2021/04/12 14:12:12;;;;;;;5.63;0.73;;;;;;;;;;5014866;28;20498;-53
2021/04/12 14:14:56;;;;;;;6.25;1.00;;;;;;;;;;5014875;28;20037;-62
2021/04/12 14:17:25;;;;;;;4.60;1.20;;;;;;;;;;5014726;28;20384;-48
2021/04/12 14:19:54;;;;;;;2.50;0.80;;;;;;;;;;5013637;28;20018;-67
2021/04/12 14:22:21;;;;;;;5.55;0.82;;;;;;;;;;5014399;28;20037;-52
2021/04/12 14:24:53;;;;;;;6.78;1.23;;;;;;;;;;5014615;28;20034;-59
2021/04/12 14:27:23;;;;;;;5.32;1.73;;;;;;;;;;5014594;28;20507;-54
2021/04/12 14:29:58;;;;;;;4.07;1.08;;;;;;;;;;5014088;28;20049;-58
2021/04/12 14:32:27;;;;;;;3.65;1.10;;;;;;;;;;5014421;28;20416;-64
2021/04/12 14:35:06;;;;;;;2.65;0.90;;;;;;;;;;5009591;28;20030;-60
2021/04/12 14:37:35;;;;;;;3.80;1.70;;;;;;;;;;5014336;28;20025;-53
2021/04/12 14:40:11;;;;;;;4.20;0.80;;;;;;;;;;5013868;28;20062;-59
2021/04/12 14:42:42;;;;;;;4.63;0.80;;;;;;;;;;5012914;28;20441;-53
2021/04/12 14:45:11;;;;;;;7.78;0.98;;;;;;;;;;5014090;28;20036;-59
2021/04/12 14:47:43;;;;;;;6.80;0.85;;;;;;;;;;5013592;28;20073;-63
2021/04/12 14:50:17;;;;;;;3.38;0.65;;;;;;;;;;5014107;28;20026;-54
2021/04/12 14:52:44;;;;;;;16.92;1.45;;;;;;;;;;5013615;28;20481;-55
2021/04/12 14:55:12;;;;;;;4.95;1.10;;;;;;;;;;5014032;28;20104;-46
2021/04/12 14:57:41;;;;;;;3.65;0.75;;;;;;;;;;5013953;28;20026;-53
2021/04/12 15:00:15;;;;;;;4.13;1.17;;;;;;;;;;5013701;28;20046;-55
2021/04/12 15:03:00;;;;;;;6.95;1.17;;;;;;;;;;5013946;28;20041;-63
2021/04/12 15:05:39;;;;;;;4.72;0.90;;;;;;;;;;5006531;28;20030;-57
2021/04/12 15:08:18;;;;;;;10.93;1.27;;;;;;;;;;5011998;28;20107;-57
2021/04/12 15:10:48;;;;;;;6.32;0.73;;;;;;;;;;5006311;28;20374;-59
2021/04/12 15:13:24;;;;;;;6.03;1.17;;;;;;;;;;5012540;28;20038;-64
2021/04/12 15:15:53;;;;;;;10.10;1.17;;;;;;;;;;5014733;28;20034;-66
2021/04/12 15:18:31;;;;;;;7.10;0.95;;;;;;;;;;4994159;28;20026;-56
2021/04/12 15:21:03;;;;;;;4.32;0.80;;;;;;;;;;5009309;28;20025;-61
2021/04/12 15:23:52;;;;;;;6.57;0.80;;;;;;;;;;5012099;28;20032;-72
2021/04/12 15:26:19;;;;;;;3.40;0.50;;;;;;;;;;5010106;28;20402;-69
2021/04/12 15:28:47;;;;;;;16.10;1.38;;;;;;;;;;5012449;28;20037;-62
2021/04/12 15:31:31;;;;;;;3.25;0.60;;;;;;;;;;5013180;28;20474;-66
2021/04/12 15:34:00;;;;;;;4.57;0.85;;;;;;;;;;5010355;28;20037;-69
2021/04/12 15:36:37;;;;;;;6.28;0.77;;;;;;;;;;5011240;28;20029;-65
2021/04/12 15:39:09;;;;;;;4.93;0.90;;;;;;;;;;5012225;28;20044;-67
2021/04/12 15:41:37;;;;;;;4.15;1.15;;;;;;;;;;5007653;28;20022;-64
2021/04/12 15:44:16;;;;;;;4.10;0.60;;;;;;;;;;5011984;28;20436;-67